createdAt,value
2023-08-08T00:02:22.557Z,101903.97
2023-08-08T00:04:52.834Z,101910.19
2023-08-08T00:07:20.724Z,101909.56
2023-08-08T00:09:48.727Z,101909.27
2023-08-08T00:12:16.868Z,101915.48
2023-08-08T00:14:44.748Z,101905.45
2023-08-08T00:17:12.667Z,101908.98
2023-08-08T00:19:40.685Z,101906.09
2023-08-08T00:22:08.753Z,101907.38
2023-08-08T00:24:36.745Z,101909.14
2023-08-08T00:27:04.811Z,101903.84
2023-08-08T00:29:32.719Z,101908.81
2023-08-08T00:32:00.964Z,101910.87
2023-08-08T00:34:29.208Z,101896.52
2023-08-08T00:36:57.082Z,101901.48
2023-08-08T00:39:25.020Z,101900.67
2023-08-08T00:41:52.989Z,101894.95
2023-08-08T00:44:20.871Z,101890.47
2023-08-08T00:46:49.136Z,101892.07
2023-08-08T00:49:17.331Z,101885.53
2023-08-08T00:51:45.224Z,101888.08
2023-08-08T00:54:13.961Z,101882.81
2023-08-08T00:56:42.002Z,101882.00
2023-08-08T00:59:12.367Z,101872.61
2023-08-08T01:01:40.354Z,101880.10
2023-08-08T01:04:09.366Z,101870.68
2023-08-08T01:06:44.951Z,101875.66
2023-08-08T01:09:19.449Z,101872.45
2023-08-08T01:11:50.934Z,101875.00
2023-08-08T01:14:21.330Z,101875.49
2023-08-08T01:16:49.451Z,101880.10
2023-08-08T01:19:26.067Z,101872.48
2023-08-08T01:21:56.688Z,101873.10
2023-08-08T01:24:28.149Z,101866.73
2023-08-08T01:26:56.305Z,101869.60
2023-08-08T01:29:24.686Z,101869.77
2023-08-08T01:31:52.582Z,101875.20
2023-08-08T01:34:20.588Z,101870.39
2023-08-08T01:37:02.145Z,101861.13
2023-08-08T01:39:33.115Z,101872.77
2023-08-08T01:42:02.773Z,101862.70
2023-08-08T01:44:31.547Z,101859.53
2023-08-08T01:46:59.747Z,101864.14
2023-08-08T01:49:27.697Z,101869.57
2023-08-08T01:51:55.686Z,101874.67
2023-08-08T01:54:23.641Z,101872.12
2023-08-08T01:56:51.552Z,101878.14
2023-08-08T01:59:19.418Z,101883.56
2023-08-08T02:01:47.371Z,101882.45
2023-08-08T02:04:15.830Z,101881.34
2023-08-08T02:06:43.736Z,101882.13
2023-08-08T02:09:11.695Z,101877.35
2023-08-08T02:11:39.544Z,101878.30
2023-08-08T02:14:07.491Z,101880.03
2023-08-08T02:16:35.522Z,101874.45
2023-08-08T02:19:03.551Z,101878.27
2023-08-08T02:21:31.452Z,101861.23
2023-08-08T02:23:59.680Z,101867.41
2023-08-08T02:26:27.793Z,101858.65
2023-08-08T02:28:55.803Z,101863.29
2023-08-08T02:31:23.775Z,101871.20
2023-08-08T02:33:52.928Z,101866.43
2023-08-08T02:36:21.481Z,101870.72
2023-08-08T02:38:49.430Z,101862.57
2023-08-08T02:41:17.320Z,101875.00
2023-08-08T02:43:45.185Z,101872.28
2023-08-08T02:46:13.096Z,101869.54
2023-08-08T02:48:41.101Z,101875.78
2023-08-08T02:51:09.054Z,101879.58
2023-08-08T02:53:36.957Z,101872.38
2023-08-08T02:56:04.971Z,101868.39
2023-08-08T02:58:32.892Z,101857.87
2023-08-08T03:01:00.941Z,101856.75
2023-08-08T03:03:28.997Z,101867.09
2023-08-08T03:05:56.943Z,101865.98
2023-08-08T03:08:24.887Z,101858.32
2023-08-08T03:10:52.887Z,101860.52
2023-08-08T03:13:22.213Z,101864.63
2023-08-08T03:15:50.451Z,101868.79
2023-08-08T03:18:18.632Z,101869.73
2023-08-08T03:20:46.845Z,101870.68
2023-08-08T03:23:14.865Z,101864.60
2023-08-08T03:25:43.258Z,101861.40
2023-08-08T03:28:11.190Z,101864.77
2023-08-08T03:30:40.433Z,101860.74
2023-08-08T03:33:08.419Z,101861.69
2023-08-08T03:35:36.280Z,101862.97
2023-08-08T03:38:05.169Z,101861.82
2023-08-08T03:40:33.616Z,101858.65
2023-08-08T03:43:01.798Z,101867.70
2023-08-08T03:45:30.050Z,101866.10
2023-08-08T03:47:57.994Z,101861.33
2023-08-08T03:50:26.241Z,101856.03
2023-08-08T03:52:55.345Z,101861.46
2023-08-08T03:55:23.394Z,101857.44
2023-08-08T03:57:51.389Z,101858.71
2023-08-08T04:00:19.527Z,101868.27
2023-08-08T04:02:47.619Z,101855.15
2023-08-08T04:05:15.672Z,101864.21
2023-08-08T04:07:43.710Z,101871.99
2023-08-08T04:10:12.071Z,101875.81
2023-08-08T04:12:40.016Z,101874.21
2023-08-08T04:15:08.361Z,101879.61
2023-08-08T04:17:36.428Z,101880.07
2023-08-08T04:20:04.948Z,101883.73
2023-08-08T04:22:32.883Z,101891.97
2023-08-08T04:25:01.044Z,101885.46
2023-08-08T04:27:29.008Z,101895.77
2023-08-08T04:29:56.985Z,101896.58
2023-08-08T04:32:25.014Z,101894.98
2023-08-08T04:34:52.931Z,101902.76
2023-08-08T04:37:20.880Z,101892.59
2023-08-08T04:39:48.880Z,101898.31
2023-08-08T04:42:16.842Z,101898.31
2023-08-08T04:44:44.902Z,101897.04
2023-08-08T04:47:12.823Z,101905.64
2023-08-08T04:49:40.714Z,101905.18
2023-08-08T04:52:08.656Z,101903.91
2023-08-08T04:54:36.780Z,101898.97
2023-08-08T04:57:04.772Z,101899.30
2023-08-08T04:59:32.933Z,101906.98
2023-08-08T05:02:01.379Z,101903.28
2023-08-08T05:04:29.702Z,101907.30
2023-08-08T05:06:57.673Z,101897.43
2023-08-08T05:09:28.769Z,101903.05
2023-08-08T05:11:56.836Z,101905.80
2023-08-08T05:14:24.862Z,101910.58
2023-08-08T05:16:52.978Z,101902.66
2023-08-08T05:19:21.124Z,101906.98
2023-08-08T05:21:50.257Z,101905.25
2023-08-08T05:24:18.436Z,101905.45
2023-08-08T05:26:46.581Z,101901.65
2023-08-08T05:29:14.547Z,101901.06
2023-08-08T05:31:42.507Z,101905.38
2023-08-08T05:34:10.436Z,101901.55
2023-08-08T05:36:38.379Z,101909.07
2023-08-08T05:39:09.575Z,101911.69
2023-08-08T05:41:37.771Z,101905.67
2023-08-08T05:44:05.830Z,101915.55
2023-08-08T05:46:34.188Z,101915.61
2023-08-08T05:49:03.643Z,101913.26
2023-08-08T05:51:31.560Z,101908.02
2023-08-08T05:54:02.101Z,101913.45
2023-08-08T05:56:38.451Z,101909.83
2023-08-08T05:59:07.026Z,101906.66
2023-08-08T06:01:36.352Z,101909.23
2023-08-08T06:04:04.437Z,101905.57
2023-08-08T06:06:32.363Z,101903.68
2023-08-08T06:09:00.346Z,101906.26
2023-08-08T06:11:28.348Z,101899.39
2023-08-08T06:13:57.096Z,101910.09
2023-08-08T06:16:25.174Z,101898.77
2023-08-08T06:18:54.769Z,101895.60
2023-08-08T06:21:22.708Z,101897.66
2023-08-08T06:23:51.620Z,101898.15
2023-08-08T06:26:19.517Z,101892.36
2023-08-08T06:28:47.673Z,101886.02
2023-08-08T06:31:16.757Z,101893.02
2023-08-08T06:33:45.596Z,101886.31
2023-08-08T06:36:13.478Z,101885.17
2023-08-08T06:38:41.720Z,101888.99
2023-08-08T06:41:10.857Z,101883.70
2023-08-08T06:43:38.826Z,101890.53
2023-08-08T06:46:07.186Z,101880.91
2023-08-08T06:48:35.125Z,101890.27
2023-08-08T06:51:03.105Z,101883.37
2023-08-08T06:53:31.072Z,101888.30
2023-08-08T06:55:59.127Z,101888.73
2023-08-08T06:58:27.072Z,101883.27
2023-08-08T07:00:55.058Z,101876.66
2023-08-08T07:03:23.305Z,101886.51
2023-08-08T07:05:54.306Z,101877.52
2023-08-08T07:08:24.229Z,101875.55
2023-08-08T07:10:53.456Z,101872.61
2023-08-08T07:13:22.628Z,101867.77
2023-08-08T07:15:50.721Z,101868.66
2023-08-08T07:18:18.898Z,101861.92
2023-08-08T07:20:46.821Z,101855.77
2023-08-08T07:23:14.749Z,101856.69
2023-08-08T07:25:42.676Z,101857.08
2023-08-08T07:28:11.144Z,101853.65
2023-08-08T07:30:39.242Z,101852.53
2023-08-08T07:33:07.172Z,101851.45
2023-08-08T07:35:35.795Z,101854.23
2023-08-08T07:38:03.722Z,101851.29
2023-08-08T07:40:31.847Z,101845.08
2023-08-08T07:42:59.801Z,101846.26
2023-08-08T07:45:27.924Z,101841.68
2023-08-08T07:47:55.910Z,101839.98
2023-08-08T07:50:23.928Z,101842.95
2023-08-08T07:52:51.895Z,101839.65
2023-08-08T07:55:19.901Z,101828.95
2023-08-08T07:57:48.108Z,101843.28
2023-08-08T08:00:16.811Z,101844.91
2023-08-08T08:02:45.845Z,101838.21
2023-08-08T08:05:14.722Z,101836.48
2023-08-08T08:07:43.173Z,101835.04
2023-08-08T08:10:15.537Z,101831.24
2023-08-08T08:12:44.179Z,101825.10
2023-08-08T08:15:12.995Z,101823.37
2023-08-08T08:17:41.070Z,101818.95
2023-08-08T08:20:13.168Z,101820.84
2023-08-08T08:22:41.256Z,101819.60
2023-08-08T08:25:11.537Z,101817.09
2023-08-08T08:27:39.980Z,101813.42
2023-08-08T08:30:09.381Z,101811.13
2023-08-08T08:32:38.517Z,101814.34
2023-08-08T08:35:06.913Z,101803.05
2023-08-08T08:37:35.398Z,101811.27
2023-08-08T08:40:03.505Z,101808.42
2023-08-08T08:42:34.357Z,101809.80
2023-08-08T08:45:05.264Z,101802.96
2023-08-08T08:47:34.324Z,101804.04
2023-08-08T08:50:04.375Z,101803.32
2023-08-08T08:52:32.668Z,101802.05
2023-08-08T08:55:00.899Z,101803.19
2023-08-08T08:57:29.589Z,101809.56
2023-08-08T08:59:57.549Z,101807.54
2023-08-08T09:02:26.423Z,101803.62
2023-08-08T09:04:55.496Z,101807.11
2023-08-08T09:07:28.416Z,101798.97
2023-08-08T09:09:56.400Z,101794.30
2023-08-08T09:12:25.936Z,101803.26
2023-08-08T09:15:00.594Z,101805.91
2023-08-08T09:17:46.249Z,101803.55
2023-08-08T09:20:16.511Z,101803.84
2023-08-08T09:22:44.586Z,101799.88
2023-08-08T09:25:12.680Z,101799.92
2023-08-08T09:27:40.579Z,101792.30
2023-08-08T09:30:11.373Z,101797.30
2023-08-08T09:32:39.726Z,101797.30
2023-08-08T09:35:11.783Z,101793.64
2023-08-08T09:37:40.397Z,101787.07
2023-08-08T09:40:10.279Z,101789.72
2023-08-08T09:42:38.544Z,101786.58
2023-08-08T09:45:07.150Z,101784.75
2023-08-08T09:47:35.188Z,101775.27
2023-08-08T09:50:07.199Z,101758.13
2023-08-08T09:52:42.762Z,101769.18
2023-08-08T09:55:13.202Z,101753.35
2023-08-08T09:57:42.199Z,101764.15
2023-08-08T10:00:18.263Z,101764.70
2023-08-08T10:02:48.910Z,101762.54
2023-08-08T10:05:18.342Z,101761.76
2023-08-08T10:07:46.552Z,101763.55
2023-08-08T10:10:14.766Z,101756.66
2023-08-08T10:12:44.060Z,101760.32
2023-08-08T10:15:12.725Z,101757.15
2023-08-08T10:17:41.877Z,101754.23
2023-08-08T10:20:13.949Z,101761.89
2023-08-08T10:22:48.378Z,101756.63
2023-08-08T10:25:30.043Z,101758.52
2023-08-08T10:28:24.132Z,101752.24
2023-08-08T10:30:59.038Z,101744.88
2023-08-08T10:33:29.374Z,101749.37
2023-08-08T10:36:01.163Z,101749.85
2023-08-08T10:38:52.482Z,101742.47
2023-08-08T10:41:22.827Z,101737.46
2023-08-08T10:44:00.189Z,101742.73
2023-08-08T10:46:31.547Z,101743.45
2023-08-08T10:49:07.596Z,101731.77
2023-08-08T10:51:39.389Z,101737.33
2023-08-08T10:54:09.005Z,101727.29
2023-08-08T10:56:38.833Z,101731.22
2023-08-08T10:59:19.302Z,101726.73
2023-08-08T11:01:50.125Z,101730.07
2023-08-08T11:04:23.129Z,101733.44
2023-08-08T11:06:52.383Z,101730.73
2023-08-08T11:09:20.487Z,101718.79
2023-08-08T11:11:48.931Z,101713.69
2023-08-08T11:14:18.773Z,101717.84
2023-08-08T11:16:48.679Z,101706.43
2023-08-08T11:19:18.447Z,101707.09
2023-08-08T11:21:48.174Z,101710.95
2023-08-08T11:24:16.576Z,101710.29
2023-08-08T11:26:47.563Z,101707.54
2023-08-08T11:29:15.525Z,101707.80
2023-08-08T11:31:43.813Z,101704.08
2023-08-08T11:34:12.859Z,101699.59
2023-08-08T11:36:41.353Z,101701.16
2023-08-08T11:39:11.501Z,101691.09
2023-08-08T11:41:40.266Z,101686.05
2023-08-08T11:44:10.538Z,101680.43
2023-08-08T11:46:51.796Z,101684.62
2023-08-08T11:49:20.436Z,101676.73
2023-08-08T11:51:48.500Z,101679.26
2023-08-08T11:54:17.177Z,101678.96
2023-08-08T11:56:46.428Z,101678.90
2023-08-08T11:59:14.920Z,101682.36
2023-08-08T12:01:44.031Z,101676.61
2023-08-08T12:04:12.270Z,101672.09
2023-08-08T12:06:41.855Z,101674.77
2023-08-08T12:09:09.942Z,101666.77
2023-08-08T12:11:39.401Z,101667.81
2023-08-08T12:14:10.440Z,101666.99
2023-08-08T12:16:41.007Z,101670.07
2023-08-08T12:19:13.672Z,101676.31
2023-08-08T12:21:41.663Z,101670.72
2023-08-08T12:24:09.814Z,101665.42
2023-08-08T12:26:37.972Z,101665.42
2023-08-08T12:29:06.201Z,101667.78
2023-08-08T12:31:34.246Z,101672.29
2023-08-08T12:34:02.291Z,101663.92
2023-08-08T12:36:30.926Z,101663.79
2023-08-08T12:38:58.841Z,101669.51
2023-08-08T12:41:31.897Z,101664.25
2023-08-08T12:44:00.019Z,101665.26
2023-08-08T12:46:28.044Z,101657.87
2023-08-08T12:48:56.011Z,101659.99
2023-08-08T12:51:24.089Z,101658.33
2023-08-08T12:53:52.463Z,101657.94
2023-08-08T12:56:20.472Z,101655.98
2023-08-08T12:58:48.355Z,101658.95
2023-08-08T13:01:16.459Z,101655.19
2023-08-08T13:03:51.137Z,101648.68
2023-08-08T13:06:23.964Z,101656.10
2023-08-08T13:08:51.986Z,101658.23
2023-08-08T13:11:20.021Z,101662.94
2023-08-08T13:13:48.052Z,101658.85
2023-08-08T13:16:16.354Z,101652.93
2023-08-08T13:18:44.498Z,101653.06
2023-08-08T13:21:12.901Z,101647.90
2023-08-08T13:23:40.937Z,101647.02
2023-08-08T13:26:08.833Z,101645.90
2023-08-08T13:28:36.895Z,101647.70
2023-08-08T13:31:04.927Z,101651.85
2023-08-08T13:33:32.946Z,101644.33
2023-08-08T13:36:00.805Z,101636.16
2023-08-08T13:38:29.103Z,101639.85
2023-08-08T13:40:57.601Z,101626.61
2023-08-08T13:43:26.385Z,101629.32
2023-08-08T13:45:54.504Z,101627.63
2023-08-08T13:48:22.524Z,101640.08
2023-08-08T13:50:50.599Z,101637.40
2023-08-08T13:53:18.653Z,101636.71
2023-08-08T13:55:46.998Z,101637.47
2023-08-08T13:58:15.530Z,101634.20
2023-08-08T14:00:43.543Z,101633.51
2023-08-08T14:03:11.721Z,101634.39
2023-08-08T14:05:39.928Z,101632.27
2023-08-08T14:08:07.987Z,101621.93
2023-08-08T14:10:35.988Z,101623.99
2023-08-08T14:13:04.234Z,101619.19
2023-08-08T14:15:32.308Z,101614.34
2023-08-08T14:18:00.268Z,101619.31
2023-08-08T14:20:28.502Z,101616.93
2023-08-08T14:22:56.527Z,101627.03
2023-08-08T14:25:24.900Z,101622.65
2023-08-08T14:27:53.171Z,101623.41
2023-08-08T14:30:21.116Z,101623.41
2023-08-08T14:32:49.082Z,101631.22
2023-08-08T14:35:17.009Z,101624.48
2023-08-08T14:37:44.984Z,101620.85
2023-08-08T14:40:13.189Z,101627.30
2023-08-08T14:42:41.146Z,101620.40
2023-08-08T14:45:09.561Z,101620.40
2023-08-08T14:47:37.537Z,101619.28
2023-08-08T14:50:06.573Z,101613.13
2023-08-08T14:52:34.631Z,101615.95
2023-08-08T14:55:03.620Z,101616.99
2023-08-08T14:57:31.705Z,101598.91
2023-08-08T15:00:02.714Z,101603.62
2023-08-08T15:02:30.780Z,101612.29
2023-08-08T15:04:58.857Z,101623.86
2023-08-08T15:07:26.777Z,101617.95
2023-08-08T15:09:54.784Z,101615.78
2023-08-08T15:12:22.656Z,101613.43
2023-08-08T15:14:51.191Z,101611.20
2023-08-08T15:17:19.286Z,101616.70
2023-08-08T15:19:47.197Z,101626.61
2023-08-08T15:22:15.195Z,101622.45
2023-08-08T15:24:43.160Z,101620.46
2023-08-08T15:27:11.096Z,101615.55
2023-08-08T15:29:38.963Z,101615.66
2023-08-08T15:32:07.366Z,101609.28
2023-08-08T15:34:35.516Z,101610.72
2023-08-08T15:37:04.049Z,101606.79
2023-08-08T15:39:31.959Z,101604.77
2023-08-08T15:41:59.969Z,101607.02
2023-08-08T15:44:27.851Z,101605.32
2023-08-08T15:46:55.846Z,101602.05
2023-08-08T15:49:23.874Z,101601.49
2023-08-08T15:51:51.928Z,101603.62
2023-08-08T15:54:19.845Z,101602.05
2023-08-08T15:56:48.216Z,101601.27
2023-08-08T15:59:16.194Z,101586.91
2023-08-08T16:01:44.194Z,101591.95
2023-08-08T16:04:12.820Z,101586.68
2023-08-08T16:06:41.361Z,101588.80
2023-08-08T16:09:10.396Z,101591.16
2023-08-08T16:11:38.764Z,101584.52
2023-08-08T16:14:06.825Z,101587.92
2023-08-08T16:16:34.940Z,101579.59
2023-08-08T16:19:03.584Z,101594.50
2023-08-08T16:21:31.686Z,101596.85
2023-08-08T16:23:59.661Z,101602.34
2023-08-08T16:26:27.553Z,101603.85
2023-08-08T16:28:55.568Z,101593.29
2023-08-08T16:31:23.706Z,101590.51
2023-08-08T16:33:51.855Z,101590.70
2023-08-08T16:36:19.782Z,101602.61
2023-08-08T16:38:47.717Z,101601.92
2023-08-08T16:41:15.644Z,101596.88
2023-08-08T16:43:44.090Z,101603.06
2023-08-08T16:46:12.053Z,101591.39
2023-08-08T16:48:40.104Z,101596.20
2023-08-08T16:51:08.144Z,101601.20
2023-08-08T16:53:36.333Z,101601.95
2023-08-08T16:56:09.080Z,101592.77
2023-08-08T16:58:36.956Z,101590.97
2023-08-08T17:01:05.202Z,101600.16
2023-08-08T17:03:33.341Z,101597.38
2023-08-08T17:06:01.648Z,101604.80
2023-08-08T17:08:29.600Z,101604.66
2023-08-08T17:10:57.608Z,101615.85
2023-08-08T17:13:25.566Z,101601.37
2023-08-08T17:15:53.654Z,101604.08
2023-08-08T17:18:21.553Z,101608.46
2023-08-08T17:20:49.555Z,101608.62
2023-08-08T17:23:17.522Z,101604.83
2023-08-08T17:25:45.596Z,101617.13
2023-08-08T17:28:13.624Z,101613.63
2023-08-08T17:30:41.592Z,101606.11
2023-08-08T17:33:09.435Z,101616.27
2023-08-08T17:35:37.496Z,101611.08
2023-08-08T17:38:05.807Z,101613.59
2023-08-08T17:40:33.743Z,101613.20
2023-08-08T17:43:01.755Z,101621.28
2023-08-08T17:45:29.834Z,101627.95
2023-08-08T17:47:57.931Z,101628.90
2023-08-08T17:50:25.972Z,101632.66
2023-08-08T17:52:53.901Z,101640.93
2023-08-08T17:55:29.178Z,101631.02
2023-08-08T17:57:57.199Z,101643.05
2023-08-08T18:00:25.388Z,101642.89
2023-08-08T18:02:53.588Z,101632.37
2023-08-08T18:05:21.691Z,101630.56
2023-08-08T18:07:49.610Z,101641.16
2023-08-08T18:10:17.712Z,101637.30
2023-08-08T18:12:45.873Z,101646.33
2023-08-08T18:15:13.891Z,101642.14
2023-08-08T18:17:41.939Z,101642.77
2023-08-08T18:20:11.806Z,101644.95
2023-08-08T18:22:39.787Z,101645.02
2023-08-08T18:25:08.008Z,101641.59
2023-08-08T18:27:36.057Z,101640.87
2023-08-08T18:30:04.608Z,101644.37
2023-08-08T18:32:32.871Z,101639.13
2023-08-08T18:35:00.845Z,101652.45
2023-08-08T18:37:29.479Z,101650.38
2023-08-08T18:39:57.481Z,101655.45
2023-08-08T18:42:25.537Z,101654.70
2023-08-08T18:44:53.406Z,101663.16
2023-08-08T18:47:21.785Z,101662.97
2023-08-08T18:49:49.786Z,101660.39
2023-08-08T18:52:17.711Z,101659.96
2023-08-08T18:54:45.748Z,101662.35
2023-08-08T18:57:13.682Z,101661.37
2023-08-08T18:59:41.661Z,101663.27
2023-08-08T19:02:09.563Z,101674.91
2023-08-08T19:04:37.521Z,101675.17
2023-08-08T19:07:06.115Z,101671.51
2023-08-08T19:09:34.140Z,101670.49
2023-08-08T19:12:02.809Z,101681.02
2023-08-08T19:14:31.099Z,101676.84
2023-08-08T19:16:59.028Z,101674.16
2023-08-08T19:19:27.142Z,101668.92
2023-08-08T19:21:55.637Z,101667.62
2023-08-08T19:24:23.709Z,101678.18
2023-08-08T19:26:51.679Z,101666.86
2023-08-08T19:29:19.715Z,101675.82
2023-08-08T19:31:47.644Z,101673.73
2023-08-08T19:34:15.701Z,101676.90
2023-08-08T19:36:46.813Z,101676.94
2023-08-08T19:39:20.215Z,101676.38
2023-08-08T19:41:54.448Z,101670.85
2023-08-08T19:44:22.448Z,101675.62
2023-08-08T19:46:50.458Z,101667.98
2023-08-08T19:49:18.872Z,101667.45
2023-08-08T19:51:46.747Z,101671.41
2023-08-08T19:54:17.381Z,101669.31
2023-08-08T19:56:45.425Z,101677.49
2023-08-08T19:59:16.492Z,101675.37
2023-08-08T20:01:44.457Z,101675.66
2023-08-08T20:04:12.723Z,101677.23
2023-08-08T20:06:43.522Z,101674.35
2023-08-08T20:09:14.716Z,101662.74
2023-08-08T20:11:44.960Z,101663.49
2023-08-08T20:14:16.751Z,101666.66
2023-08-08T20:16:45.786Z,101660.09
2023-08-08T20:19:14.887Z,101651.40
2023-08-08T20:21:42.775Z,101658.49
2023-08-08T20:24:16.478Z,101662.71
2023-08-08T20:26:47.159Z,101659.27
2023-08-08T20:29:17.304Z,101659.02
2023-08-08T20:31:47.957Z,101656.89
2023-08-08T20:34:18.829Z,101655.05
2023-08-08T20:36:46.846Z,101657.45
2023-08-08T20:39:17.489Z,101662.94
2023-08-08T20:41:46.880Z,101669.51
2023-08-08T20:44:17.786Z,101668.73
2023-08-08T20:46:45.703Z,101678.21
2023-08-08T20:49:14.751Z,101677.13
2023-08-08T20:51:42.676Z,101690.27
2023-08-08T20:54:10.977Z,101681.58
2023-08-08T20:56:39.094Z,101688.18
2023-08-08T20:59:09.772Z,101688.67
2023-08-08T21:01:37.827Z,101683.15
2023-08-08T21:04:05.913Z,101676.31
2023-08-08T21:06:37.040Z,101670.23
2023-08-08T21:09:05.776Z,101666.02
2023-08-08T21:11:33.813Z,101674.41
2023-08-08T21:14:01.756Z,101669.67
2023-08-08T21:16:29.789Z,101676.77
2023-08-08T21:18:57.808Z,101666.77
2023-08-08T21:21:25.889Z,101676.51
2023-08-08T21:23:53.778Z,101669.38
2023-08-08T21:26:33.963Z,101675.40
2023-08-08T21:29:13.925Z,101671.96
2023-08-08T21:31:42.130Z,101676.70
2023-08-08T21:34:10.508Z,101668.98
2023-08-08T21:36:42.118Z,101672.95
2023-08-08T21:39:14.169Z,101669.77
2023-08-08T21:41:42.100Z,101672.91
2023-08-08T21:44:10.072Z,101672.65
2023-08-08T21:46:38.105Z,101672.88
2023-08-08T21:49:06.218Z,101668.92
2023-08-08T21:51:35.466Z,101660.48
2023-08-08T21:54:03.412Z,101661.53
2023-08-08T21:56:31.381Z,101657.28
2023-08-08T21:58:59.661Z,101668.59
2023-08-08T22:01:27.601Z,101658.59
2023-08-08T22:03:55.595Z,101660.91
2023-08-08T22:06:23.804Z,101673.50
2023-08-08T22:08:51.761Z,101662.97
2023-08-08T22:11:19.693Z,101666.90
2023-08-08T22:13:47.681Z,101667.42
2023-08-08T22:16:16.858Z,101667.65
2023-08-08T22:18:45.175Z,101661.59
2023-08-08T22:21:13.249Z,101656.04
2023-08-08T22:23:41.161Z,101654.47
2023-08-08T22:26:09.173Z,101660.78
2023-08-08T22:28:37.080Z,101650.52
2023-08-08T22:31:06.699Z,101651.04
2023-08-08T22:33:34.949Z,101652.34
2023-08-08T22:36:02.906Z,101645.77
2023-08-08T22:38:30.848Z,101645.77
2023-08-08T22:40:58.726Z,101656.53
2023-08-08T22:43:26.766Z,101658.13
2023-08-08T22:45:54.718Z,101653.91
2023-08-08T22:48:22.681Z,101649.73
2023-08-08T22:50:50.825Z,101653.13
2023-08-08T22:53:18.798Z,101657.09
2023-08-08T22:55:46.942Z,101655.77
2023-08-08T22:58:16.048Z,101651.59
2023-08-08T23:00:44.128Z,101647.37
2023-08-08T23:03:12.528Z,101642.66
2023-08-08T23:05:40.741Z,101639.79
2023-08-08T23:08:08.786Z,101636.87
2023-08-08T23:10:36.749Z,101636.87
2023-08-08T23:13:04.828Z,101637.95
2023-08-08T23:15:32.762Z,101640.31
2023-08-08T23:18:00.710Z,101639.82
2023-08-08T23:20:28.830Z,101641.39
2023-08-08T23:22:56.742Z,101637.98
2023-08-08T23:25:25.229Z,101642.47
2023-08-08T23:27:53.240Z,101637.98
2023-08-08T23:30:21.319Z,101635.66
2023-08-08T23:32:54.494Z,101641.42
2023-08-08T23:35:23.288Z,101629.87
2023-08-08T23:37:51.235Z,101624.88
2023-08-08T23:40:19.426Z,101614.90
2023-08-08T23:42:47.350Z,101618.56
2023-08-08T23:45:17.111Z,101609.90
2023-08-08T23:47:45.192Z,101606.23
2023-08-08T23:50:13.308Z,101610.42
2023-08-08T23:52:41.551Z,101624.09
2023-08-08T23:55:11.870Z,101614.64
2023-08-08T23:57:39.822Z,101621.18
